createdAt,value
2022-11-21T00:01:36.842Z,100152.81
2022-11-21T00:04:06.194Z,100147.72
2022-11-21T00:06:35.108Z,100135.72
2022-11-21T00:09:05.355Z,100125.53
2022-11-21T00:11:34.282Z,100119.56
2022-11-21T00:14:03.270Z,100121.88
2022-11-21T00:16:32.149Z,100129.50
2022-11-21T00:19:02.085Z,100152.41
2022-11-21T00:21:31.044Z,100152.88
2022-11-21T00:24:00.079Z,100149.41
2022-11-21T00:26:30.346Z,100143.63
2022-11-21T00:28:59.239Z,100143.59
2022-11-21T00:31:28.150Z,100160.28
2022-11-21T00:33:57.026Z,100157.03
2022-11-21T00:36:25.894Z,100157.03
2022-11-21T00:38:54.753Z,100150.09
2022-11-21T00:41:23.614Z,100150.09
2022-11-21T00:43:53.905Z,100146.91
2022-11-21T00:46:22.975Z,100142.50
2022-11-21T00:48:51.849Z,100145.97
2022-11-21T00:51:20.693Z,100154.28
2022-11-21T00:53:49.576Z,100157.78
2022-11-21T00:56:18.458Z,100157.56
2022-11-21T00:58:47.362Z,100146.00
2022-11-21T01:01:18.234Z,100152.97
2022-11-21T01:03:47.409Z,100153.91
2022-11-21T01:06:17.401Z,100150.66
2022-11-21T01:08:46.768Z,100148.81
2022-11-21T01:11:18.438Z,100138.19
2022-11-21T01:13:48.542Z,100149.06
2022-11-21T01:16:20.706Z,100137.97
2022-11-21T01:18:51.505Z,100137.50
2022-11-21T01:21:22.175Z,100138.66
2022-11-21T01:23:51.758Z,100132.44
2022-11-21T01:26:22.690Z,100133.16
2022-11-21T01:28:52.330Z,100134.53
2022-11-21T01:31:24.449Z,100107.75
2022-11-21T01:33:53.818Z,100118.63
2022-11-21T01:36:24.377Z,100122.78
2022-11-21T01:38:54.803Z,100133.16
2022-11-21T01:41:26.941Z,100117.91
2022-11-21T01:43:55.857Z,100115.66
2022-11-21T01:46:26.603Z,100113.53
2022-11-21T01:49:01.407Z,100110.56
2022-11-21T01:51:34.267Z,100108.25
2022-11-21T01:54:07.862Z,100093.69
2022-11-21T01:56:41.473Z,100093.72
2022-11-21T01:59:13.880Z,100073.63
2022-11-21T02:01:45.349Z,100070.41
2022-11-21T02:04:14.379Z,100067.16
2022-11-21T02:06:43.725Z,100081.50
2022-11-21T02:09:13.258Z,100068.56
2022-11-21T02:11:46.399Z,100067.38
2022-11-21T02:14:15.329Z,100077.09
2022-11-21T02:16:46.036Z,100080.09
2022-11-21T02:19:21.282Z,100072.94
2022-11-21T02:21:56.963Z,100073.66
2022-11-21T02:24:31.556Z,100077.81
2022-11-21T02:27:02.345Z,100083.56
2022-11-21T02:29:31.973Z,100083.34
2022-11-21T02:32:05.396Z,100088.19
2022-11-21T02:34:34.296Z,100072.47
2022-11-21T02:37:03.836Z,100058.38
2022-11-21T02:39:37.236Z,100058.38
2022-11-21T02:42:13.946Z,100053.34
2022-11-21T02:44:50.507Z,100061.19
2022-11-21T02:47:19.588Z,100061.66
2022-11-21T02:49:56.750Z,100062.31
2022-11-21T02:52:25.641Z,100047.78
2022-11-21T02:54:54.563Z,100037.63
2022-11-21T02:57:25.033Z,100037.38
2022-11-21T02:59:54.086Z,100041.31
2022-11-21T03:02:23.022Z,100041.75
2022-11-21T03:04:52.315Z,100022.16
2022-11-21T03:07:21.465Z,100023.31
2022-11-21T03:09:50.414Z,100028.41
2022-11-21T03:12:19.305Z,100038.56
2022-11-21T03:14:49.640Z,100035.31
2022-11-21T03:17:18.575Z,100037.84
2022-11-21T03:19:47.439Z,100044.56
2022-11-21T03:22:17.337Z,100036.22
2022-11-21T03:24:46.252Z,100031.84
2022-11-21T03:27:15.197Z,100041.31
2022-11-21T03:29:44.587Z,100028.38
2022-11-21T03:32:14.937Z,100026.50
2022-11-21T03:34:43.890Z,100023.31
2022-11-21T03:37:12.832Z,100018.66
2022-11-21T03:39:41.848Z,100015.44
2022-11-21T03:42:10.873Z,100009.88
2022-11-21T03:44:39.934Z,100024.91
2022-11-21T03:47:08.876Z,100028.81
2022-11-21T03:49:39.187Z,100029.06
2022-11-21T03:52:08.112Z,100029.28
2022-11-21T03:54:36.978Z,100038.31
2022-11-21T03:57:05.890Z,100039.69
2022-11-21T03:59:34.787Z,100038.97
2022-11-21T04:02:03.877Z,100041.97
2022-11-21T04:04:32.820Z,100039.00
2022-11-21T04:07:03.284Z,100037.56
2022-11-21T04:09:32.245Z,100045.00
2022-11-21T04:12:06.355Z,100049.13
2022-11-21T04:14:36.029Z,100034.09
2022-11-21T04:17:05.117Z,100036.19
2022-11-21T04:19:33.998Z,100029.72
2022-11-21T04:22:04.311Z,100038.50
2022-11-21T04:24:33.290Z,100043.59
2022-11-21T04:27:02.214Z,100021.16
2022-11-21T04:29:31.221Z,100035.03
2022-11-21T04:32:00.198Z,100024.88
2022-11-21T04:34:29.490Z,100015.63
2022-11-21T04:36:58.795Z,100018.88
2022-11-21T04:39:29.107Z,100016.78
2022-11-21T04:41:58.017Z,100016.78
2022-11-21T04:44:28.687Z,100020.72
2022-11-21T04:47:02.316Z,100021.88
2022-11-21T04:49:33.912Z,100016.34
2022-11-21T04:52:02.972Z,100006.16
2022-11-21T04:54:33.930Z,100001.34
2022-11-21T04:57:03.088Z,100006.66
2022-11-21T04:59:32.684Z,100001.56
2022-11-21T05:02:01.677Z,100006.19
2022-11-21T05:04:30.860Z,100006.19
2022-11-21T05:06:59.928Z,100002.28
2022-11-21T05:09:28.867Z,99992.81
2022-11-21T05:12:16.505Z,99996.50
2022-11-21T05:14:45.397Z,99991.41
2022-11-21T05:17:14.441Z,99987.50
2022-11-21T05:19:43.314Z,99994.63
2022-11-21T05:22:12.413Z,99997.88
2022-11-21T05:24:41.432Z,100002.50
2022-11-21T05:27:11.766Z,99999.25
2022-11-21T05:29:40.752Z,99995.78
2022-11-21T05:32:09.831Z,100002.94
2022-11-21T05:34:39.058Z,99997.19
2022-11-21T05:37:08.084Z,99996.03
2022-11-21T05:39:36.977Z,99997.88
2022-11-21T05:42:06.112Z,100002.25
2022-11-21T05:44:35.402Z,100002.50
2022-11-21T05:47:04.344Z,100010.34
2022-11-21T05:49:33.288Z,100010.34
2022-11-21T05:52:02.432Z,100012.16
2022-11-21T05:54:31.395Z,100020.03
2022-11-21T05:57:00.330Z,100007.09
2022-11-21T05:59:29.317Z,99998.78
2022-11-21T06:02:16.976Z,99993.94
2022-11-21T06:04:45.937Z,99991.38
2022-11-21T06:07:14.858Z,99989.53
2022-11-21T06:09:44.278Z,99994.84
2022-11-21T06:12:13.211Z,99986.28
2022-11-21T06:14:42.223Z,99974.72
2022-11-21T06:17:13.290Z,99973.50
2022-11-21T06:19:42.313Z,99981.13
2022-11-21T06:22:11.206Z,99976.28
2022-11-21T06:24:40.150Z,99970.00
2022-11-21T06:27:09.142Z,99963.53
2022-11-21T06:29:38.269Z,99969.31
2022-11-21T06:32:07.158Z,99982.94
2022-11-21T06:34:37.480Z,99991.25
2022-11-21T06:37:06.700Z,99984.31
2022-11-21T06:39:35.900Z,99998.16
2022-11-21T06:42:04.906Z,99994.19
2022-11-21T06:44:33.879Z,99993.69
2022-11-21T06:47:02.850Z,99993.69
2022-11-21T06:49:31.816Z,100000.81
2022-11-21T06:52:02.101Z,99996.69
2022-11-21T06:54:31.247Z,99998.28
2022-11-21T06:57:00.436Z,100003.81
2022-11-21T06:59:29.450Z,100007.28
2022-11-21T07:01:58.370Z,99997.81
2022-11-21T07:04:27.684Z,99992.03
2022-11-21T07:06:56.917Z,99991.50
2022-11-21T07:09:34.440Z,99995.16
2022-11-21T07:12:17.657Z,99993.53
2022-11-21T07:14:46.598Z,99987.97
2022-11-21T07:17:16.083Z,99984.28
2022-11-21T07:19:45.059Z,99989.84
2022-11-21T07:22:13.956Z,99990.78
2022-11-21T07:24:44.272Z,99995.41
2022-11-21T07:27:13.201Z,99994.69
2022-11-21T07:29:42.145Z,99979.56
2022-11-21T07:32:11.077Z,99971.00
2022-11-21T07:34:40.219Z,99978.31
2022-11-21T07:37:09.291Z,99973.69
2022-11-21T07:39:38.446Z,99980.06
2022-11-21T07:42:08.803Z,99981.88
2022-11-21T07:44:38.756Z,99978.59
2022-11-21T07:47:07.784Z,99970.31
2022-11-21T07:49:36.784Z,99972.63
2022-11-21T07:52:06.045Z,99973.06
2022-11-21T07:54:35.081Z,99980.03
2022-11-21T07:57:04.043Z,99969.88
2022-11-21T07:59:34.444Z,99977.22
2022-11-21T08:02:03.629Z,99982.44
2022-11-21T08:04:32.804Z,99988.44
2022-11-21T08:07:02.615Z,99980.34
2022-11-21T08:09:34.877Z,99980.75
2022-11-21T08:12:10.492Z,99976.47
2022-11-21T08:14:41.907Z,99981.56
2022-11-21T08:17:11.016Z,99978.03
2022-11-21T08:19:39.930Z,99977.50
2022-11-21T08:22:08.921Z,99968.69
2022-11-21T08:24:37.856Z,99973.69
2022-11-21T08:27:06.927Z,99980.69
2022-11-21T08:29:37.538Z,99976.59
2022-11-21T08:32:07.925Z,99967.22
2022-11-21T08:34:36.820Z,99969.84
2022-11-21T08:37:06.055Z,99972.88
2022-11-21T08:39:35.020Z,99961.06
2022-11-21T08:42:06.573Z,99961.00
2022-11-21T08:44:36.806Z,99957.56
2022-11-21T08:47:07.325Z,99962.44
2022-11-21T08:49:36.498Z,99969.16
2022-11-21T08:52:06.044Z,99963.78
2022-11-21T08:54:35.034Z,99974.69
2022-11-21T08:57:04.296Z,99970.31
2022-11-21T08:59:33.437Z,99969.31
2022-11-21T09:02:03.329Z,99971.16
2022-11-21T09:04:33.745Z,99968.09
2022-11-21T09:07:04.314Z,99970.16
2022-11-21T09:09:34.018Z,99966.53
2022-11-21T09:12:03.544Z,99963.50
2022-11-21T09:14:49.803Z,99973.84
2022-11-21T09:17:36.037Z,99963.59
2022-11-21T09:20:07.433Z,99963.63
2022-11-21T09:22:36.317Z,99956.38
2022-11-21T09:25:05.788Z,99957.44
2022-11-21T09:27:36.187Z,99952.50
2022-11-21T09:30:05.412Z,99956.59
2022-11-21T09:32:34.675Z,99951.84
2022-11-21T09:35:03.602Z,99950.34
2022-11-21T09:37:38.039Z,99955.16
2022-11-21T09:40:08.211Z,99956.19
2022-11-21T09:43:04.574Z,99946.25
2022-11-21T09:45:36.400Z,99946.88
2022-11-21T09:48:12.638Z,99938.44
2022-11-21T09:50:49.336Z,99935.06
2022-11-21T09:53:25.541Z,99937.97
2022-11-21T09:55:59.370Z,99930.72
2022-11-21T09:58:33.340Z,99924.16
2022-11-21T10:01:03.305Z,99929.72
2022-11-21T10:03:41.888Z,99940.28
2022-11-21T10:06:18.913Z,99922.09
2022-11-21T10:09:00.794Z,99929.94
2022-11-21T10:12:02.860Z,99932.13
2022-11-21T10:14:49.537Z,99929.38
2022-11-21T10:17:26.210Z,99927.00
2022-11-21T10:20:10.701Z,99919.69
2022-11-21T10:23:00.973Z,99918.91
2022-11-21T10:25:37.544Z,99917.13
2022-11-21T10:28:12.906Z,99910.00
2022-11-21T10:30:46.728Z,99914.00
2022-11-21T10:33:23.239Z,99909.50
2022-11-21T10:35:57.102Z,99907.38
2022-11-21T10:38:29.242Z,99903.19
2022-11-21T10:41:05.528Z,99892.84
2022-11-21T10:43:55.542Z,99897.03
2022-11-21T10:46:24.567Z,99880.16
2022-11-21T10:48:57.853Z,99882.78
2022-11-21T10:51:38.609Z,99891.75
2022-11-21T10:54:26.647Z,99881.00
2022-11-21T10:57:02.475Z,99887.34
2022-11-21T10:59:32.086Z,99892.41
2022-11-21T11:02:02.674Z,99881.31
2022-11-21T11:04:44.045Z,99884.41
2022-11-21T11:07:25.673Z,99877.38
2022-11-21T11:10:14.812Z,99869.88
2022-11-21T11:13:08.701Z,99865.28
2022-11-21T11:16:02.436Z,99865.47
2022-11-21T11:18:32.776Z,99865.56
2022-11-21T11:21:17.379Z,99860.28
2022-11-21T11:23:47.097Z,99862.34
2022-11-21T11:26:22.727Z,99852.97
2022-11-21T11:28:53.308Z,99851.03
2022-11-21T11:31:22.244Z,99855.50
2022-11-21T11:33:53.893Z,99847.00
2022-11-21T11:36:35.980Z,99844.69
2022-11-21T11:39:12.697Z,99846.38
2022-11-21T11:42:33.656Z,99837.97
2022-11-21T11:45:34.817Z,99831.47
2022-11-21T11:48:09.767Z,99829.69
2022-11-21T11:50:44.987Z,99828.44
2022-11-21T11:53:18.520Z,99833.41
2022-11-21T11:55:53.595Z,99837.44
2022-11-21T11:58:29.361Z,99842.38
2022-11-21T12:01:05.118Z,99832.97
2022-11-21T12:03:42.392Z,99834.94
2022-11-21T12:06:17.629Z,99843.22
2022-11-21T12:08:54.337Z,99845.75
2022-11-21T12:11:50.121Z,99842.53
2022-11-21T12:14:55.993Z,99849.00
2022-11-21T12:17:33.701Z,99835.69
2022-11-21T12:20:13.194Z,99833.97
2022-11-21T12:22:42.750Z,99828.03
2022-11-21T12:25:13.546Z,99834.72
2022-11-21T12:27:43.820Z,99835.88
2022-11-21T12:30:56.714Z,99842.94
2022-11-21T12:33:27.185Z,99852.72
2022-11-21T12:36:21.243Z,99854.59
2022-11-21T12:39:20.595Z,99846.28
2022-11-21T12:42:13.205Z,99852.75
2022-11-21T12:44:59.078Z,99847.22
2022-11-21T12:47:58.891Z,99843.50
2022-11-21T12:51:05.150Z,99854.41
2022-11-21T12:53:58.631Z,99857.94
2022-11-21T12:56:36.502Z,99836.69
2022-11-21T12:59:05.697Z,99862.19
2022-11-21T13:01:43.583Z,99864.53
2022-11-21T13:04:18.339Z,99866.09
2022-11-21T13:06:49.753Z,99861.19
2022-11-21T13:09:22.683Z,99856.56
2022-11-21T13:11:59.876Z,99850.09
2022-11-21T13:14:34.718Z,99847.81
2022-11-21T13:17:22.201Z,99855.22
2022-11-21T13:19:56.228Z,99846.47
2022-11-21T13:22:54.961Z,99847.13
2022-11-21T13:25:49.009Z,99847.13
2022-11-21T13:28:36.160Z,99834.00
2022-11-21T13:31:29.375Z,99820.59
2022-11-21T13:33:58.673Z,99828.22
2022-11-21T13:36:43.652Z,99836.31
2022-11-21T13:39:38.161Z,99839.56
2022-11-21T13:42:31.528Z,99835.84
2022-11-21T13:45:16.285Z,99838.19
2022-11-21T13:48:06.650Z,99839.34
2022-11-21T13:51:23.049Z,99838.41
2022-11-21T13:54:11.308Z,99831.94
2022-11-21T13:56:56.397Z,99829.38
2022-11-21T13:59:49.369Z,99829.84
2022-11-21T14:02:44.774Z,99837.94
2022-11-21T14:05:49.262Z,99845.56
2022-11-21T14:08:21.781Z,99849.53
2022-11-21T14:10:52.846Z,99845.34
2022-11-21T14:13:29.286Z,99836.38
2022-11-21T14:16:15.854Z,99829.84
2022-11-21T14:18:47.791Z,99838.19
2022-11-21T14:21:22.651Z,99830.78
2022-11-21T14:23:52.077Z,99824.78
2022-11-21T14:26:22.211Z,99830.09
2022-11-21T14:28:53.118Z,99830.09
2022-11-21T14:31:22.229Z,99821.56
2022-11-21T14:33:57.376Z,99821.75
2022-11-21T14:36:29.445Z,99820.34
2022-11-21T14:39:34.771Z,99823.84
2022-11-21T14:41:53.951Z,99820.59
2022-11-21T14:44:24.643Z,99817.31
2022-11-21T14:47:07.035Z,99817.38
2022-11-21T14:49:36.127Z,99815.06
2022-11-21T14:52:18.365Z,99806.50
2022-11-21T14:55:22.243Z,99800.50
2022-11-21T14:57:43.480Z,99807.94
2022-11-21T15:00:43.224Z,99814.41
2022-11-21T15:03:19.225Z,99813.94
2022-11-21T15:06:07.357Z,99821.09
2022-11-21T15:11:34.394Z,99826.19
2022-11-21T15:14:16.722Z,99819.25
2022-11-21T15:16:50.979Z,99818.78
2022-11-21T15:19:23.029Z,99824.78
2022-11-21T15:21:54.693Z,99823.16
2022-11-21T15:24:42.715Z,99815.06
2022-11-21T15:27:35.103Z,99818.94
2022-11-21T15:30:22.116Z,99815.06
2022-11-21T15:33:09.207Z,99816.47
2022-11-21T15:35:50.312Z,99803.56
2022-11-21T15:38:23.303Z,99805.84
2022-11-21T15:41:33.428Z,99804.94
2022-11-21T15:44:22.391Z,99800.97
2022-11-21T15:46:54.214Z,99809.97
2022-11-21T15:49:33.027Z,99805.78
2022-11-21T15:52:14.385Z,99797.72
2022-11-21T15:54:44.080Z,99798.41
2022-11-21T15:57:16.489Z,99803.25
2022-11-21T15:59:46.527Z,99799.09
2022-11-21T16:02:15.828Z,99794.31
2022-11-21T16:04:46.522Z,99792.00
2022-11-21T16:07:15.618Z,99793.66
2022-11-21T16:09:46.054Z,99793.50
2022-11-21T16:12:15.023Z,99792.78
2022-11-21T16:14:44.060Z,99806.66
2022-11-21T16:17:13.107Z,99795.56
2022-11-21T16:19:42.093Z,99796.03
2022-11-21T16:22:12.673Z,99797.16
2022-11-21T16:24:41.728Z,99790.69
2022-11-21T16:27:10.887Z,99795.75
2022-11-21T16:29:40.099Z,99791.22
2022-11-21T16:32:09.223Z,99787.03
2022-11-21T16:34:38.204Z,99787.97
2022-11-21T16:37:07.883Z,99792.56
2022-11-21T16:39:38.419Z,99794.88
2022-11-21T16:42:11.760Z,99797.66
2022-11-21T16:44:42.282Z,99801.38
2022-11-21T16:47:11.470Z,99785.69
2022-11-21T16:49:44.324Z,99794.00
2022-11-21T16:52:13.464Z,99802.34
2022-11-21T16:54:43.980Z,99801.44
2022-11-21T16:57:13.063Z,99795.94
2022-11-21T16:59:42.035Z,99793.84
2022-11-21T17:02:14.393Z,99789.50
2022-11-21T17:04:43.539Z,99790.81
2022-11-21T17:07:12.676Z,99788.06
2022-11-21T17:09:41.938Z,99787.63
2022-11-21T17:12:12.484Z,99785.53
2022-11-21T17:14:41.494Z,99779.72
2022-11-21T17:17:10.547Z,99778.81
2022-11-21T17:19:39.430Z,99772.81
2022-11-21T17:22:10.868Z,99776.97
2022-11-21T17:24:39.872Z,99770.97
2022-11-21T17:27:08.840Z,99771.25
2022-11-21T17:29:39.127Z,99769.63
2022-11-21T17:32:08.125Z,99774.91
2022-11-21T17:34:37.190Z,99771.25
2022-11-21T17:37:06.469Z,99769.63
2022-11-21T17:39:35.999Z,99764.56
2022-11-21T17:42:06.098Z,99768.78
2022-11-21T17:44:44.958Z,99766.44
2022-11-21T17:47:16.304Z,99761.56
2022-11-21T17:49:46.099Z,99756.94
2022-11-21T17:52:15.265Z,99762.00
2022-11-21T17:54:44.419Z,99763.44
2022-11-21T17:57:13.540Z,99759.28
2022-11-21T17:59:45.234Z,99764.16
2022-11-21T18:02:15.277Z,99748.00
2022-11-21T18:04:47.094Z,99746.59
2022-11-21T18:07:17.986Z,99750.28
2022-11-21T18:09:48.316Z,99751.50
2022-11-21T18:12:18.123Z,99758.16
2022-11-21T18:14:49.058Z,99759.06
2022-11-21T18:17:18.549Z,99764.59
2022-11-21T18:19:47.928Z,99757.19
2022-11-21T18:22:18.442Z,99762.00
2022-11-21T18:24:48.313Z,99756.28
2022-11-21T18:27:21.384Z,99757.19
2022-11-21T18:30:08.089Z,99748.44
2022-11-21T18:32:44.060Z,99750.28
2022-11-21T18:35:13.185Z,99743.84
2022-11-21T18:37:43.512Z,99737.38
2022-11-21T18:40:13.689Z,99737.38
2022-11-21T18:42:42.842Z,99743.38
2022-11-21T18:45:13.524Z,99738.09
2022-11-21T18:47:42.967Z,99729.13
2022-11-21T18:50:12.337Z,99725.88
2022-11-21T18:52:46.463Z,99739.00
2022-11-21T18:55:16.123Z,99736.69
2022-11-21T18:57:45.266Z,99740.38
2022-11-21T19:00:17.439Z,99736.69
2022-11-21T19:02:47.931Z,99736.28
2022-11-21T19:05:20.487Z,99730.03
2022-11-21T19:07:50.176Z,99729.97
2022-11-21T19:10:44.097Z,99726.53
2022-11-21T19:13:09.413Z,99723.31
2022-11-21T19:15:40.023Z,99726.75
2022-11-21T19:18:09.443Z,99727.88
2022-11-21T19:20:39.748Z,99726.97
2022-11-21T19:23:09.390Z,99721.44
2022-11-21T19:25:38.501Z,99723.03
2022-11-21T19:28:07.644Z,99721.19
2022-11-21T19:30:37.483Z,99716.34
2022-11-21T19:33:08.006Z,99717.78
2022-11-21T19:35:38.743Z,99709.72
2022-11-21T19:38:08.067Z,99697.47
2022-11-21T19:40:51.455Z,99699.56
2022-11-21T19:43:20.667Z,99703.47
2022-11-21T19:45:55.039Z,99693.81
2022-11-21T19:48:28.458Z,99695.19
2022-11-21T19:50:58.715Z,99706.72
2022-11-21T19:53:29.055Z,99696.56
2022-11-21T19:55:58.419Z,99697.97
2022-11-21T19:58:27.633Z,99698.25
2022-11-21T20:01:05.434Z,99694.72
2022-11-21T20:03:36.607Z,99689.31
2022-11-21T20:06:07.211Z,99697.19
2022-11-21T20:08:36.476Z,99689.38
2022-11-21T20:11:10.389Z,99689.84
2022-11-21T20:13:41.074Z,99684.56
2022-11-21T20:16:19.114Z,99682.75
2022-11-21T20:18:50.180Z,99681.13
2022-11-21T20:21:20.569Z,99673.00
2022-11-21T20:23:50.828Z,99676.94
2022-11-21T20:26:22.547Z,99674.69
2022-11-21T20:28:52.132Z,99663.09
2022-11-21T20:31:29.180Z,99661.28
2022-11-21T20:34:02.384Z,99663.09
2022-11-21T20:36:34.395Z,99662.44
2022-11-21T20:39:05.722Z,99655.22
2022-11-21T20:41:36.455Z,99661.72
2022-11-21T20:46:56.385Z,99666.78
2022-11-21T20:49:27.157Z,99665.88
2022-11-21T20:54:45.585Z,99657.59
2022-11-21T20:57:15.639Z,99664.97
2022-11-21T20:59:45.371Z,99663.81
2022-11-21T21:02:15.018Z,99653.88
2022-11-21T21:04:45.392Z,99661.28
2022-11-21T21:07:14.575Z,99662.91
2022-11-21T21:09:43.558Z,99665.16
2022-11-21T21:12:12.572Z,99661.91
2022-11-21T21:14:41.603Z,99664.97
2022-11-21T21:17:10.610Z,99663.81
2022-11-21T21:19:39.669Z,99661.06
2022-11-21T21:22:10.215Z,99670.06
2022-11-21T21:24:39.130Z,99658.53
2022-11-21T21:27:08.174Z,99656.63
2022-11-21T21:29:37.238Z,99646.75
2022-11-21T21:32:06.935Z,99646.50
2022-11-21T21:34:35.835Z,99646.28
2022-11-21T21:37:04.947Z,99645.59
2022-11-21T21:39:36.692Z,99645.59
2022-11-21T21:42:05.767Z,99638.22
2022-11-21T21:44:34.958Z,99637.22
2022-11-21T21:47:04.382Z,99630.09
2022-11-21T21:49:33.335Z,99618.81
2022-11-21T21:52:02.308Z,99612.81
2022-11-21T21:54:31.810Z,99612.53
2022-11-21T21:57:02.694Z,99611.84
2022-11-21T21:59:33.048Z,99613.19
2022-11-21T22:02:01.987Z,99612.75
2022-11-21T22:04:33.105Z,99615.53
2022-11-21T22:07:02.863Z,99606.72
2022-11-21T22:09:32.082Z,99609.25
2022-11-21T22:12:02.638Z,99614.34
2022-11-21T22:14:31.796Z,99611.31
2022-11-21T22:17:01.881Z,99602.06
2022-11-21T22:19:31.047Z,99602.50
2022-11-21T22:22:00.110Z,99596.69
2022-11-21T22:24:29.038Z,99599.75
2022-11-21T22:26:58.093Z,99600.44
2022-11-21T22:29:28.520Z,99609.19
2022-11-21T22:31:57.417Z,99598.31
2022-11-21T22:34:26.780Z,99595.03
2022-11-21T22:36:55.736Z,99591.78
2022-11-21T22:39:25.208Z,99584.63
2022-11-21T22:41:59.579Z,99593.38
2022-11-21T22:44:30.507Z,99574.19
2022-11-21T22:46:59.781Z,99566.34
2022-11-21T22:49:28.735Z,99561.47
2022-11-21T22:51:57.870Z,99560.75
2022-11-21T22:54:27.251Z,99560.28
2022-11-21T22:56:56.405Z,99554.75
2022-11-21T22:59:25.273Z,99554.56
2022-11-21T23:01:55.710Z,99544.59
2022-11-21T23:04:24.629Z,99536.78
2022-11-21T23:06:53.607Z,99532.59
2022-11-21T23:09:22.519Z,99527.72
2022-11-21T23:11:51.429Z,99506.28
2022-11-21T23:14:20.425Z,99513.66
2022-11-21T23:16:49.510Z,99503.03
2022-11-21T23:19:19.832Z,99491.03
2022-11-21T23:21:48.792Z,99498.88
2022-11-21T23:24:18.364Z,99497.94
2022-11-21T23:26:47.266Z,99491.25
2022-11-21T23:29:16.136Z,99494.00
2022-11-21T23:31:45.033Z,99491.03
2022-11-21T23:34:14.624Z,99485.53
2022-11-21T23:36:44.959Z,99495.88
2022-11-21T23:39:13.923Z,99487.78
2022-11-21T23:41:42.812Z,99487.78
2022-11-21T23:44:11.708Z,99484.28
2022-11-21T23:46:40.784Z,99484.88
2022-11-21T23:49:09.661Z,99473.28
2022-11-21T23:51:38.580Z,99471.47
2022-11-21T23:54:08.988Z,99472.38
2022-11-21T23:56:37.970Z,99475.63
2022-11-21T23:59:06.833Z,99468.72
